createdAt,value
2019-05-23T00:00:49.798Z,99.70
2019-05-23T00:05:23.500Z,99.60
2019-05-23T00:09:47.350Z,99.40
2019-05-23T00:14:05.147Z,99.60
2019-05-23T00:18:11.277Z,99.60
2019-05-23T00:22:16.928Z,99.90
2019-05-23T00:26:23.002Z,99.30
2019-05-23T00:30:34.742Z,99.50
2019-05-23T00:34:39.604Z,99.50
2019-05-23T00:38:45.784Z,99.40
2019-05-23T00:42:51.667Z,99.50
2019-05-23T00:46:56.342Z,99.60
2019-05-23T00:51:05.251Z,99.40
2019-05-23T00:55:11.105Z,99.80
2019-05-23T00:59:26.605Z,99.90
2019-05-23T01:03:25.074Z,99.80
2019-05-23T01:07:31.882Z,99.90
2019-05-23T01:11:37.896Z,99.80
2019-05-23T01:15:44.423Z,99.90
2019-05-23T01:19:50.094Z,99.90
2019-05-23T01:24:00.679Z,99.90
2019-05-23T01:28:06.267Z,99.90
2019-05-23T01:32:17.014Z,99.90
2019-05-23T01:36:21.798Z,99.90
2019-05-23T01:40:27.548Z,99.90
2019-05-23T01:44:34.066Z,99.90
2019-05-23T01:48:40.026Z,99.80
2019-05-23T01:52:45.093Z,99.90
2019-05-23T01:56:50.426Z,99.90
2019-05-23T02:00:56.118Z,99.90
2019-05-23T02:05:01.586Z,99.90
2019-05-23T02:09:09.441Z,99.90
2019-05-23T02:13:14.940Z,99.90
2019-05-23T02:17:21.522Z,99.90
2019-05-23T02:21:28.679Z,99.90
2019-05-23T02:25:35.812Z,99.90
2019-05-23T02:29:42.887Z,99.90
2019-05-23T02:33:48.814Z,99.90
2019-05-23T02:38:23.273Z,99.90
2019-05-23T02:42:41.631Z,99.90
2019-05-23T02:46:51.705Z,99.90
2019-05-23T02:51:00.994Z,99.90
2019-05-23T02:55:12.651Z,99.90
2019-05-23T02:59:37.867Z,99.90
2019-05-23T03:03:45.581Z,99.90
2019-05-23T03:07:52.696Z,99.90
2019-05-23T03:11:59.592Z,99.90
2019-05-23T03:16:05.802Z,99.90
2019-05-23T03:20:11.214Z,99.90
2019-05-23T03:24:16.271Z,99.90
2019-05-23T03:28:23.073Z,99.90
2019-05-23T03:32:44.271Z,99.90
2019-05-23T03:36:50.781Z,99.90
2019-05-23T03:40:55.810Z,99.90
2019-05-23T03:45:00.433Z,99.90
2019-05-23T03:49:07.278Z,99.90
2019-05-23T03:53:12.951Z,99.90
2019-05-23T03:57:25.319Z,99.90
2019-05-23T04:01:45.929Z,99.90
2019-05-23T04:05:37.432Z,99.90
2019-05-23T04:09:43.403Z,99.90
2019-05-23T04:13:48.552Z,99.90
2019-05-23T04:17:53.428Z,99.90
2019-05-23T04:21:58.691Z,99.90
2019-05-23T04:26:04.335Z,99.90
2019-05-23T04:30:11.049Z,99.90
2019-05-23T04:34:15.912Z,99.90
2019-05-23T04:38:20.928Z,99.90
2019-05-23T04:42:25.770Z,99.90
2019-05-23T04:46:31.256Z,99.90
2019-05-23T04:50:36.484Z,99.90
2019-05-23T04:54:42.104Z,99.90
2019-05-23T04:58:47.627Z,99.90
2019-05-23T05:02:54.502Z,99.90
2019-05-23T05:06:59.131Z,99.90
2019-05-23T05:11:04.257Z,99.90
2019-05-23T05:15:09.328Z,99.90
2019-05-23T05:19:14.476Z,99.90
2019-05-23T05:23:19.163Z,99.90
2019-05-23T05:27:24.025Z,99.90
2019-05-23T05:31:28.731Z,99.90
2019-05-23T05:35:33.580Z,99.90
2019-05-23T05:39:38.709Z,99.90
2019-05-23T05:43:43.402Z,99.90
2019-05-23T05:47:48.175Z,99.90
2019-05-23T05:51:53.062Z,99.90
2019-05-23T05:55:58.510Z,99.90
2019-05-23T06:00:03.633Z,99.90
2019-05-23T06:04:10.028Z,99.70
2019-05-23T06:08:15.232Z,99.90
2019-05-23T06:12:20.979Z,99.90
2019-05-23T06:16:26.649Z,99.80
2019-05-23T06:20:31.697Z,98.60
2019-05-23T06:24:46.970Z,98.40
2019-05-23T06:28:44.060Z,97.70
2019-05-23T06:32:48.978Z,94.90
2019-05-23T06:36:55.211Z,91.60
2019-05-23T06:40:59.955Z,87.10
2019-05-23T06:45:06.062Z,81.00
2019-05-23T06:49:10.995Z,71.70
2019-05-23T06:53:15.704Z,66.80
2019-05-23T06:57:20.753Z,63.70
2019-05-23T07:01:25.691Z,61.10
2019-05-23T07:05:35.484Z,67.90
2019-05-23T07:09:40.730Z,67.40
2019-05-23T07:13:46.516Z,64.70
2019-05-23T07:17:52.329Z,62.00
2019-05-23T07:21:57.444Z,64.40
2019-05-23T07:26:02.532Z,61.10
2019-05-23T07:30:12.373Z,59.70
2019-05-23T07:34:17.622Z,61.00
2019-05-23T07:38:22.533Z,57.00
2019-05-23T07:42:27.303Z,55.00
2019-05-23T07:46:32.740Z,59.20
2019-05-23T07:50:38.068Z,59.50
2019-05-23T07:54:48.584Z,58.60
2019-05-23T07:58:53.297Z,57.30
2019-05-23T08:03:00.113Z,59.40
2019-05-23T08:07:07.313Z,57.50
2019-05-23T08:11:12.288Z,67.00
2019-05-23T08:15:18.610Z,63.30
2019-05-23T08:19:23.400Z,59.90
2019-05-23T08:23:29.346Z,54.20
2019-05-23T08:27:34.636Z,53.70
2019-05-23T08:31:39.821Z,51.10
2019-05-23T08:35:45.695Z,46.10
2019-05-23T08:39:51.513Z,48.70
2019-05-23T08:43:57.211Z,52.60
2019-05-23T08:48:01.992Z,46.80
2019-05-23T08:52:06.753Z,48.10
2019-05-23T08:56:18.689Z,43.10
2019-05-23T09:00:20.191Z,44.20
2019-05-23T09:04:25.166Z,43.00
2019-05-23T09:08:31.209Z,44.00
2019-05-23T09:12:36.664Z,42.60
2019-05-23T09:16:41.900Z,40.80
2019-05-23T09:20:46.645Z,39.40
2019-05-23T09:24:51.295Z,38.40
2019-05-23T09:28:56.895Z,40.80
2019-05-23T09:33:02.137Z,44.90
2019-05-23T09:37:08.891Z,41.50
2019-05-23T09:41:13.999Z,41.20
2019-05-23T09:45:18.790Z,39.70
2019-05-23T09:49:24.557Z,38.50
2019-05-23T09:53:29.385Z,39.40
2019-05-23T09:57:34.637Z,38.40
2019-05-23T10:01:39.277Z,38.90
2019-05-23T10:05:44.447Z,40.60
2019-05-23T10:09:49.216Z,37.80
2019-05-23T10:13:54.724Z,36.90
2019-05-23T10:18:20.258Z,37.90
2019-05-23T10:22:25.502Z,37.40
2019-05-23T10:26:30.291Z,38.20
2019-05-23T10:30:34.960Z,37.50
2019-05-23T10:34:39.681Z,37.10
2019-05-23T10:38:44.579Z,40.10
2019-05-23T10:42:49.282Z,41.80
2019-05-23T10:46:53.963Z,35.00
2019-05-23T10:50:59.074Z,38.30
2019-05-23T10:55:03.969Z,38.30
2019-05-23T10:59:08.731Z,39.80
2019-05-23T11:03:13.792Z,41.00
2019-05-23T11:07:19.046Z,43.90
2019-05-23T11:11:24.654Z,45.90
2019-05-23T11:15:31.899Z,43.70
2019-05-23T11:19:37.469Z,45.10
2019-05-23T11:23:50.123Z,44.90
2019-05-23T11:27:55.573Z,44.70
2019-05-23T11:32:01.698Z,44.80
2019-05-23T11:36:06.642Z,45.50
2019-05-23T11:40:11.797Z,47.50
2019-05-23T11:44:17.886Z,46.80
2019-05-23T11:48:24.710Z,47.50
2019-05-23T11:52:31.209Z,49.20
2019-05-23T11:56:39.006Z,46.70
2019-05-23T12:01:26.473Z,45.50
2019-05-23T12:05:31.257Z,47.00
2019-05-23T12:09:36.280Z,43.50
2019-05-23T12:13:41.919Z,49.30
2019-05-23T12:17:46.943Z,51.60
2019-05-23T12:21:51.720Z,52.70
2019-05-23T12:25:56.964Z,50.20
2019-05-23T12:30:04.606Z,46.90
2019-05-23T12:34:11.566Z,49.00
2019-05-23T12:38:16.976Z,47.70
2019-05-23T12:42:22.026Z,53.00
2019-05-23T12:46:26.639Z,52.70
2019-05-23T12:50:36.517Z,54.50
2019-05-23T12:54:41.464Z,50.40
2019-05-23T12:58:46.316Z,49.20
2019-05-23T13:02:51.866Z,51.20
2019-05-23T13:06:57.848Z,49.40
2019-05-23T13:11:02.665Z,43.00
2019-05-23T13:15:07.975Z,43.90
2019-05-23T13:19:13.091Z,42.80
2019-05-23T13:23:21.126Z,46.70
2019-05-23T13:27:24.730Z,48.50
2019-05-23T13:31:29.726Z,45.40
2019-05-23T13:35:34.978Z,47.30
2019-05-23T13:39:39.614Z,50.60
2019-05-23T13:43:44.846Z,49.40
2019-05-23T13:47:49.631Z,48.70
2019-05-23T13:51:54.585Z,50.20
2019-05-23T13:55:59.648Z,45.60
2019-05-23T14:00:06.406Z,47.00
2019-05-23T14:04:11.412Z,46.70
2019-05-23T14:08:19.135Z,46.20
2019-05-23T14:12:23.770Z,49.80
2019-05-23T14:16:30.221Z,50.20
2019-05-23T14:20:35.687Z,51.00
2019-05-23T14:24:40.386Z,49.20
2019-05-23T14:28:45.442Z,49.30
2019-05-23T14:32:55.477Z,50.90
2019-05-23T14:37:14.675Z,50.60
2019-05-23T14:41:19.581Z,51.00
2019-05-23T14:45:44.004Z,49.20
2019-05-23T14:49:58.380Z,46.60
2019-05-23T14:54:27.261Z,49.60
2019-05-23T14:58:32.562Z,51.70
2019-05-23T15:02:37.462Z,49.30
2019-05-23T15:06:43.291Z,50.80
2019-05-23T15:10:48.115Z,49.90
2019-05-23T15:14:52.993Z,48.30
2019-05-23T15:18:58.056Z,49.80
2019-05-23T15:23:02.922Z,49.90
2019-05-23T15:27:08.184Z,52.40
2019-05-23T15:31:14.726Z,52.50
2019-05-23T15:35:19.734Z,52.10
2019-05-23T15:39:25.298Z,53.60
2019-05-23T15:43:30.516Z,54.60
2019-05-23T15:47:36.526Z,56.80
2019-05-23T15:51:47.723Z,57.70
2019-05-23T15:56:25.899Z,58.20
2019-05-23T16:00:20.459Z,58.90
2019-05-23T16:04:26.819Z,57.80
2019-05-23T16:08:31.532Z,54.60
2019-05-23T16:12:36.195Z,56.80
2019-05-23T16:16:41.613Z,56.70
2019-05-23T16:20:46.405Z,59.00
2019-05-23T16:24:51.061Z,59.80
2019-05-23T16:28:55.717Z,58.60
2019-05-23T16:33:00.308Z,59.80
2019-05-23T16:37:05.210Z,60.60
2019-05-23T16:41:11.614Z,60.50
2019-05-23T16:45:16.924Z,60.60
2019-05-23T16:49:21.819Z,60.60
2019-05-23T16:53:26.889Z,60.50
2019-05-23T16:57:43.165Z,60.20
2019-05-23T17:02:05.981Z,59.00
2019-05-23T17:06:21.059Z,59.20
2019-05-23T17:11:03.681Z,61.20
2019-05-23T17:15:31.983Z,62.10
2019-05-23T17:19:51.560Z,61.00
2019-05-23T17:24:14.260Z,59.10
2019-05-23T17:28:33.505Z,60.10
2019-05-23T17:32:38.431Z,61.00
2019-05-23T17:36:43.086Z,61.30
2019-05-23T17:40:47.843Z,60.00
2019-05-23T17:44:52.545Z,60.00
2019-05-23T17:48:57.311Z,61.80
2019-05-23T17:53:01.984Z,60.80
2019-05-23T17:57:08.397Z,61.10
2019-05-23T18:01:13.539Z,60.20
2019-05-23T18:05:19.889Z,60.00
2019-05-23T18:09:25.750Z,60.80
2019-05-23T18:13:31.193Z,61.50
2019-05-23T18:17:37.017Z,61.10
2019-05-23T18:21:42.494Z,62.70
2019-05-23T18:25:47.271Z,63.00
2019-05-23T18:29:52.121Z,63.10
2019-05-23T18:33:58.170Z,64.10
2019-05-23T18:38:03.101Z,66.20
2019-05-23T18:42:08.282Z,68.30
2019-05-23T18:46:21.924Z,67.60
2019-05-23T18:50:27.208Z,68.30
2019-05-23T18:54:31.985Z,67.90
2019-05-23T18:58:36.699Z,68.80
2019-05-23T19:02:41.872Z,67.70
2019-05-23T19:06:47.295Z,70.80
2019-05-23T19:10:52.406Z,70.80
2019-05-23T19:14:56.998Z,72.20
2019-05-23T19:19:02.319Z,73.60
2019-05-23T19:23:07.559Z,73.40
2019-05-23T19:27:14.399Z,73.90
2019-05-23T19:31:19.389Z,74.20
2019-05-23T19:35:24.637Z,75.60
2019-05-23T19:39:29.381Z,75.90
2019-05-23T19:43:34.692Z,77.70
2019-05-23T19:47:40.607Z,78.10
2019-05-23T19:51:45.454Z,79.00
2019-05-23T19:55:52.187Z,79.40
2019-05-23T19:59:56.859Z,79.40
2019-05-23T20:04:01.709Z,84.00
2019-05-23T20:08:06.766Z,80.90
2019-05-23T20:12:13.479Z,81.30
2019-05-23T20:16:18.137Z,81.40
2019-05-23T20:20:24.080Z,83.50
2019-05-23T20:24:28.726Z,81.90
2019-05-23T20:28:33.602Z,83.00
2019-05-23T20:32:38.209Z,84.10
2019-05-23T20:36:42.895Z,85.20
2019-05-23T20:40:48.090Z,86.30
2019-05-23T20:44:52.712Z,87.00
2019-05-23T20:48:57.556Z,87.40
2019-05-23T20:53:02.280Z,88.30
2019-05-23T20:57:07.554Z,89.00
2019-05-23T21:01:19.921Z,89.70
2019-05-23T21:05:24.557Z,89.10
2019-05-23T21:09:29.608Z,90.20
2019-05-23T21:13:34.755Z,90.00
2019-05-23T21:17:39.390Z,89.80
2019-05-23T21:21:44.098Z,90.60
2019-05-23T21:26:15.074Z,90.10
2019-05-23T21:30:19.748Z,91.10
2019-05-23T21:34:24.436Z,90.70
2019-05-23T21:38:29.775Z,90.70
2019-05-23T21:42:47.392Z,90.80
2019-05-23T21:46:40.915Z,91.30
2019-05-23T21:50:45.696Z,91.20
2019-05-23T21:54:50.432Z,91.40
2019-05-23T21:58:55.523Z,91.40
2019-05-23T22:03:01.422Z,91.60
2019-05-23T22:07:07.174Z,91.40
2019-05-23T22:11:11.970Z,92.20
2019-05-23T22:15:33.504Z,92.30
2019-05-23T22:19:39.117Z,92.50
2019-05-23T22:23:44.134Z,92.70
2019-05-23T22:27:48.949Z,93.10
2019-05-23T22:31:56.417Z,92.80
2019-05-23T22:36:01.506Z,93.30
2019-05-23T22:40:06.694Z,93.20
2019-05-23T22:44:12.071Z,93.50
2019-05-23T22:48:16.743Z,94.10
2019-05-23T22:52:21.350Z,94.20
2019-05-23T22:56:26.050Z,94.30
2019-05-23T23:00:35.682Z,94.10
2019-05-23T23:04:40.379Z,94.00
2019-05-23T23:08:45.223Z,92.90
2019-05-23T23:12:50.086Z,93.40
2019-05-23T23:16:55.291Z,93.70
2019-05-23T23:21:00.173Z,94.30
2019-05-23T23:25:05.344Z,94.50
2019-05-23T23:29:10.217Z,94.30
2019-05-23T23:33:14.974Z,94.80
2019-05-23T23:37:19.739Z,95.20
2019-05-23T23:41:24.759Z,95.30
2019-05-23T23:45:47.686Z,95.30
2019-05-23T23:50:11.301Z,94.90
2019-05-23T23:54:34.162Z,95.20
2019-05-23T23:58:38.479Z,95.20
